Time;durP1;ratioP1;P1;durP2;ratioP2;P2;SDS_P1;SDS_P2;PMS_P1;PMS_P2;Temp;Humidity;BMP_temperature;BMP_pressure;BME280_temperature;BME280_humidity;BME280_pressure;Samples;Min_cycle;Max_cycle;Signal;HPM_P1;HPM_P2
2021/07/08 00:01:09;;;;;;;1.50;0.90;;;23.70;62.00;;;;;;5024460;28;20387;-63
2021/07/08 00:03:35;;;;;;;1.30;0.90;;;23.70;62.00;;;;;;5023540;28;20762;-64
2021/07/08 00:06:01;;;;;;;1.10;0.85;;;23.70;62.00;;;;;;5024026;28;20464;-64
2021/07/08 00:08:26;;;;;;;1.63;0.90;;;23.70;62.00;;;;;;5024671;28;20912;-64
2021/07/08 00:10:55;;;;;;;1.20;0.90;;;23.70;62.00;;;;;;5039495;28;20775;-65
2021/07/08 00:13:25;;;;;;;1.67;0.80;;;23.70;62.00;;;;;;5024436;28;20439;-65
2021/07/08 00:15:52;;;;;;;1.00;0.80;;;23.70;61.90;;;;;;5023433;28;20387;-64
2021/07/08 00:18:18;;;;;;;1.30;1.00;;;23.70;61.90;;;;;;5024067;28;20394;-64
2021/07/08 00:20:46;;;;;;;1.70;1.00;;;23.70;62.00;;;;;;5024176;28;20391;-64
2021/07/08 00:23:13;;;;;;;2.00;0.97;;;23.70;61.90;;;;;;5024317;28;20772;-64
2021/07/08 00:25:38;;;;;;;1.00;0.75;;;23.70;61.90;;;;;;5024175;28;20393;-64
2021/07/08 00:28:07;;;;;;;1.10;0.80;;;23.70;62.00;;;;;;5024328;28;20415;-64
2021/07/08 00:30:33;;;;;;;1.20;0.80;;;23.70;62.00;;;;;;5024660;28;20383;-64
2021/07/08 00:32:59;;;;;;;1.23;0.90;;;23.70;62.00;;;;;;5023613;28;20434;-64
2021/07/08 00:35:25;;;;;;;1.50;0.80;;;23.70;61.90;;;;;;5024219;28;20429;-63
2021/07/08 00:37:52;;;;;;;1.45;0.82;;;23.70;61.80;;;;;;5022842;28;20425;-64
2021/07/08 00:40:18;;;;;;;1.30;0.70;;;23.70;61.90;;;;;;5024063;28;20391;-64
2021/07/08 00:42:45;;;;;;;1.20;0.80;;;23.60;61.80;;;;;;5022646;28;20403;-64
2021/07/08 00:45:13;;;;;;;1.50;0.90;;;23.60;62.00;;;;;;5023702;28;20484;-64
2021/07/08 00:47:39;;;;;;;1.30;0.90;;;23.60;61.70;;;;;;5021761;28;20426;-64
2021/07/08 00:50:10;;;;;;;1.17;0.90;;;23.60;61.70;;;;;;5022827;28;20438;-64
2021/07/08 00:52:37;;;;;;;1.10;0.77;;;23.60;61.70;;;;;;5023981;28;20469;-64
2021/07/08 00:55:03;;;;;;;1.33;0.80;;;23.60;61.70;;;;;;5021876;28;20390;-63
2021/07/08 00:57:29;;;;;;;1.55;0.88;;;23.60;61.70;;;;;;5022164;28;20759;-64
2021/07/08 00:59:55;;;;;;;1.27;0.75;;;23.60;61.80;;;;;;5024058;28;20399;-64
2021/07/08 01:02:22;;;;;;;1.50;0.90;;;23.60;61.80;;;;;;5023239;28;20486;-64
2021/07/08 01:04:49;;;;;;;1.33;0.80;;;23.60;61.80;;;;;;5023610;28;20403;-64
2021/07/08 01:07:24;;;;;;;1.30;0.82;;;23.60;61.80;;;;;;5023642;28;20423;-64
2021/07/08 01:09:51;;;;;;;1.02;0.73;;;23.60;61.70;;;;;;5024008;28;20383;-64
2021/07/08 01:12:18;;;;;;;1.60;0.93;;;23.60;61.80;;;;;;5023460;28;20453;-64
2021/07/08 01:14:44;;;;;;;1.60;0.85;;;23.60;61.70;;;;;;5023143;28;20383;-63
2021/07/08 01:17:10;;;;;;;1.83;1.00;;;23.60;61.70;;;;;;5022995;28;20778;-63
2021/07/08 01:19:38;;;;;;;1.60;1.00;;;23.60;61.80;;;;;;5023494;28;20391;-64
2021/07/08 01:22:05;;;;;;;1.45;1.00;;;23.60;61.70;;;;;;5022831;28;20422;-64
2021/07/08 01:24:31;;;;;;;1.67;1.05;;;23.60;61.60;;;;;;5023689;28;20383;-64
2021/07/08 01:26:58;;;;;;;1.00;0.70;;;23.60;61.70;;;;;;5023198;28;20421;-64
2021/07/08 01:29:24;;;;;;;1.58;0.88;;;23.60;61.40;;;;;;5023172;28;20445;-63
2021/07/08 01:31:49;;;;;;;1.67;1.00;;;23.60;61.60;;;;;;5023406;28;20921;-64
2021/07/08 01:34:15;;;;;;;1.90;0.82;;;23.60;61.70;;;;;;5023228;28;20393;-64
2021/07/08 01:36:41;;;;;;;1.42;1.10;;;23.60;61.70;;;;;;5023194;28;20402;-63
2021/07/08 01:39:07;;;;;;;1.50;0.80;;;23.60;61.70;;;;;;5023358;28;20873;-65
2021/07/08 01:41:33;;;;;;;1.10;0.90;;;23.60;61.70;;;;;;5023101;28;21161;-64
2021/07/08 01:44:00;;;;;;;1.35;0.90;;;23.50;61.70;;;;;;5023213;28;20395;-65
2021/07/08 01:46:27;;;;;;;1.50;1.07;;;23.60;61.70;;;;;;5023060;28;20418;-64
2021/07/08 01:48:56;;;;;;;1.70;1.00;;;23.50;61.80;;;;;;5022406;28;20407;-64
2021/07/08 01:51:21;;;;;;;1.35;0.90;;;23.60;61.80;;;;;;5022921;28;20939;-64
2021/07/08 01:53:47;;;;;;;1.30;0.90;;;23.60;61.80;;;;;;5023112;28;20498;-64
2021/07/08 01:56:13;;;;;;;1.33;0.93;;;23.60;61.80;;;;;;5021442;28;20748;-64
2021/07/08 01:58:39;;;;;;;1.70;0.90;;;23.50;61.60;;;;;;5021613;28;21002;-65
2021/07/08 02:01:04;;;;;;;1.40;0.97;;;23.50;61.70;;;;;;5022193;28;20920;-64
2021/07/08 02:03:30;;;;;;;1.52;1.00;;;23.60;61.80;;;;;;5022942;28;20925;-63
2021/07/08 02:05:56;;;;;;;1.33;0.98;;;23.50;61.70;;;;;;5022351;28;20399;-64
2021/07/08 02:08:22;;;;;;;1.40;0.90;;;23.50;61.70;;;;;;5022580;28;20480;-64
2021/07/08 02:10:47;;;;;;;1.57;1.00;;;23.50;61.70;;;;;;5022342;28;20474;-64
2021/07/08 02:13:13;;;;;;;1.45;0.95;;;23.50;61.70;;;;;;5022826;28;20482;-64
2021/07/08 02:15:39;;;;;;;1.60;0.90;;;23.50;61.80;;;;;;5022371;28;20474;-64
2021/07/08 02:18:05;;;;;;;1.20;0.90;;;23.50;61.70;;;;;;5037895;28;20883;-64
2021/07/08 02:20:32;;;;;;;1.20;0.85;;;23.50;61.70;;;;;;5022252;28;20914;-64
2021/07/08 02:22:57;;;;;;;1.15;0.80;;;23.50;61.70;;;;;;5021915;28;20390;-64
2021/07/08 02:25:23;;;;;;;1.30;0.90;;;23.50;61.70;;;;;;5022790;28;20418;-64
2021/07/08 02:27:49;;;;;;;1.52;0.88;;;23.50;61.70;;;;;;5037705;28;20930;-64
2021/07/08 02:30:19;;;;;;;1.95;0.90;;;23.50;61.70;;;;;;5022562;28;20396;-64
2021/07/08 02:32:46;;;;;;;1.65;0.85;;;23.50;61.70;;;;;;5020791;28;20409;-64
2021/07/08 02:35:12;;;;;;;1.08;0.75;;;23.50;61.70;;;;;;5022086;28;20379;-63
2021/07/08 02:37:38;;;;;;;1.17;0.70;;;23.50;61.70;;;;;;5022661;28;20399;-64
2021/07/08 02:40:06;;;;;;;1.15;0.80;;;23.50;61.70;;;;;;5022915;28;20724;-64
2021/07/08 02:42:32;;;;;;;1.30;0.90;;;23.50;61.70;;;;;;5021280;28;21418;-64
2021/07/08 02:44:58;;;;;;;1.20;0.90;;;23.50;61.70;;;;;;5022424;28;20400;-64
2021/07/08 02:47:24;;;;;;;1.40;0.90;;;23.50;61.70;;;;;;5037709;28;20484;-64
2021/07/08 02:49:49;;;;;;;1.67;0.80;;;23.50;61.70;;;;;;5022243;28;21269;-64
2021/07/08 02:52:15;;;;;;;1.58;0.90;;;23.50;61.70;;;;;;5022277;28;20395;-64
2021/07/08 02:54:41;;;;;;;1.47;0.77;;;23.50;61.70;;;;;;5022254;28;20398;-64
2021/07/08 02:57:06;;;;;;;1.60;0.80;;;23.50;61.70;;;;;;5021874;28;20426;-63
2021/07/08 02:59:32;;;;;;;1.70;1.00;;;23.50;62.40;;;;;;5020961;28;20398;-64
2021/07/08 03:01:57;;;;;;;1.27;0.90;;;23.50;61.80;;;;;;5022289;28;20394;-63
2021/07/08 03:04:23;;;;;;;1.37;0.73;;;23.50;61.70;;;;;;5022413;28;20883;-63
2021/07/08 03:06:49;;;;;;;1.75;1.08;;;23.50;61.70;;;;;;5020813;28;20470;-63
2021/07/08 03:09:15;;;;;;;1.97;1.00;;;23.50;61.80;;;;;;5020181;28;20431;-64
2021/07/08 03:11:40;;;;;;;1.60;0.98;;;23.40;62.10;;;;;;5025682;28;20894;-63
2021/07/08 03:14:06;;;;;;;2.13;0.97;;;23.50;62.90;;;;;;5025646;28;20410;-63
2021/07/08 03:16:31;;;;;;;2.67;1.30;;;23.50;63.10;;;;;;5024431;28;20402;-64
2021/07/08 03:18:57;;;;;;;3.15;1.00;;;23.50;63.50;;;;;;5040340;28;20398;-63
2021/07/08 03:21:23;;;;;;;2.57;0.90;;;23.50;62.50;;;;;;5025141;28;20744;-63
2021/07/08 03:23:48;;;;;;;2.17;0.95;;;23.50;64.10;;;;;;5025605;28;20395;-63
2021/07/08 03:26:14;;;;;;;3.53;1.10;;;23.50;63.60;;;;;;5025334;28;20383;-64
2021/07/08 03:28:40;;;;;;;2.78;1.20;;;23.50;62.70;;;;;;5023968;28;20414;-63
2021/07/08 03:31:05;;;;;;;2.60;1.38;;;23.50;62.50;;;;;;5025127;28;20387;-64
2021/07/08 03:33:31;;;;;;;1.83;1.23;;;23.50;62.90;;;;;;5025474;28;20580;-64
2021/07/08 03:35:57;;;;;;;1.73;1.00;;;23.50;63.90;;;;;;5025575;28;20391;-64
2021/07/08 03:38:22;;;;;;;2.63;1.10;;;23.50;63.00;;;;;;5025187;28;20393;-63
2021/07/08 03:40:48;;;;;;;4.30;1.00;;;23.50;63.10;;;;;;5024942;28;20406;-63
2021/07/08 03:43:15;;;;;;;2.40;1.07;;;23.50;63.30;;;;;;5024576;28;20400;-63
2021/07/08 03:45:40;;;;;;;1.70;0.98;;;23.40;63.30;;;;;;5024301;28;20394;-65
2021/07/08 03:48:06;;;;;;;2.50;1.30;;;23.40;63.20;;;;;;5025090;28;20426;-63
2021/07/08 03:50:32;;;;;;;3.00;1.17;;;23.50;63.60;;;;;;5024742;28;20403;-63
2021/07/08 03:52:58;;;;;;;2.15;1.00;;;23.40;63.00;;;;;;5024395;28;20399;-64
2021/07/08 03:55:26;;;;;;;2.28;1.10;;;23.40;62.20;;;;;;5024416;28;20384;-64
2021/07/08 03:57:57;;;;;;;2.10;1.08;;;23.40;62.30;;;;;;5025592;28;20419;-63
2021/07/08 04:00:25;;;;;;;2.47;1.10;;;23.40;62.30;;;;;;5024899;28;21085;-63
2021/07/08 04:02:50;;;;;;;2.63;1.10;;;23.40;62.60;;;;;;5024426;28;20395;-63
2021/07/08 04:05:16;;;;;;;5.13;1.02;;;23.40;62.10;;;;;;5024744;28;20877;-64
2021/07/08 04:07:42;;;;;;;3.70;1.10;;;23.40;61.80;;;;;;5024742;28;20466;-63
2021/07/08 04:10:08;;;;;;;2.72;1.20;;;23.30;61.90;;;;;;5024610;28;20390;-64
2021/07/08 04:12:34;;;;;;;2.05;1.00;;;23.30;61.70;;;;;;5024444;28;20395;-63
2021/07/08 04:15:00;;;;;;;1.80;1.00;;;23.40;61.80;;;;;;5023249;28;20401;-63
2021/07/08 04:17:26;;;;;;;3.90;1.10;;;23.30;61.70;;;;;;5024664;28;20448;-63
2021/07/08 04:19:51;;;;;;;2.97;1.13;;;23.30;61.60;;;;;;5024490;28;20390;-63
2021/07/08 04:22:17;;;;;;;4.33;1.10;;;23.30;61.60;;;;;;5023329;28;20450;-63
2021/07/08 04:24:43;;;;;;;3.17;1.00;;;23.30;61.60;;;;;;5024212;28;20387;-63
2021/07/08 04:27:08;;;;;;;1.90;1.00;;;23.30;61.60;;;;;;5024252;28;20926;-64
2021/07/08 04:29:34;;;;;;;2.03;1.05;;;23.40;61.80;;;;;;5024254;28;20496;-63
2021/07/08 04:32:00;;;;;;;2.72;1.00;;;23.40;61.70;;;;;;5024366;28;20990;-62
2021/07/08 04:34:26;;;;;;;4.37;1.00;;;23.40;61.60;;;;;;5024331;28;20481;-63
2021/07/08 04:36:51;;;;;;;1.57;0.93;;;23.40;61.60;;;;;;5023669;28;20402;-63
2021/07/08 04:39:17;;;;;;;2.70;0.80;;;23.40;61.70;;;;;;5022848;28;20408;-63
2021/07/08 04:41:43;;;;;;;2.13;0.87;;;23.40;61.60;;;;;;5024029;28;20387;-64
2021/07/08 04:44:09;;;;;;;2.47;0.88;;;23.40;61.70;;;;;;5024108;28;20524;-64
2021/07/08 04:46:34;;;;;;;1.90;0.90;;;23.30;61.60;;;;;;5023643;28;20388;-63
2021/07/08 04:49:00;;;;;;;1.25;0.80;;;23.40;61.70;;;;;;5022269;28;21475;-64
2021/07/08 04:51:26;;;;;;;1.57;1.00;;;23.30;61.60;;;;;;5023688;28;20379;-63
2021/07/08 04:53:52;;;;;;;2.60;0.95;;;23.40;61.70;;;;;;5023887;28;20406;-63
2021/07/08 04:56:17;;;;;;;2.13;1.00;;;23.30;61.50;;;;;;5023748;28;20394;-63
2021/07/08 04:58:43;;;;;;;3.00;1.00;;;23.30;61.60;;;;;;5023951;28;20395;-64
2021/07/08 05:01:09;;;;;;;1.75;0.90;;;23.30;61.60;;;;;;5022157;28;20470;-63
2021/07/08 05:03:35;;;;;;;1.20;0.77;;;23.30;61.60;;;;;;5023227;28;20387;-64
2021/07/08 05:06:01;;;;;;;1.60;0.90;;;23.30;61.60;;;;;;5023553;28;20422;-64
2021/07/08 05:08:26;;;;;;;1.35;0.95;;;23.30;61.60;;;;;;5022874;28;20790;-63
2021/07/08 05:10:52;;;;;;;1.37;0.90;;;23.30;61.60;;;;;;5022884;28;20452;-63
2021/07/08 05:13:18;;;;;;;2.90;0.88;;;23.30;61.60;;;;;;5022667;28;20489;-63
2021/07/08 05:15:44;;;;;;;1.10;0.75;;;23.30;61.60;;;;;;5023095;28;20402;-63
2021/07/08 05:18:10;;;;;;;2.05;0.98;;;23.30;61.50;;;;;;5022980;28;20398;-63
2021/07/08 05:20:38;;;;;;;2.00;0.95;;;23.30;61.60;;;;;;5022806;28;20379;-63
2021/07/08 05:23:12;;;;;;;1.70;0.90;;;23.30;61.50;;;;;;5022486;28;20410;-63
2021/07/08 05:25:38;;;;;;;2.83;1.00;;;23.30;61.50;;;;;;5022749;28;20880;-63
2021/07/08 05:28:03;;;;;;;1.67;0.90;;;23.30;61.50;;;;;;5022971;28;20422;-63
2021/07/08 05:30:29;;;;;;;1.52;0.93;;;23.30;61.50;;;;;;5022700;28;20751;-63
2021/07/08 05:32:57;;;;;;;1.35;0.80;;;23.30;61.50;;;;;;5022102;28;20402;-63
2021/07/08 05:35:22;;;;;;;1.35;0.82;;;23.30;61.50;;;;;;5022776;28;20395;-63
2021/07/08 05:37:49;;;;;;;1.50;0.90;;;23.30;61.50;;;;;;5022504;28;20448;-63
2021/07/08 05:40:14;;;;;;;1.80;0.80;;;23.30;61.50;;;;;;5022647;28;20395;-64
2021/07/08 05:42:40;;;;;;;2.17;1.10;;;23.30;61.40;;;;;;5022611;28;20406;-63
2021/07/08 05:45:06;;;;;;;4.60;1.20;;;23.30;61.50;;;;;;5021875;28;20386;-64
2021/07/08 05:47:33;;;;;;;6.55;1.10;;;23.40;61.50;;;;;;5021781;28;20902;-63
2021/07/08 05:49:58;;;;;;;3.78;1.30;;;23.40;61.60;;;;;;5021031;28;20414;-64
2021/07/08 05:52:25;;;;;;;4.23;1.17;;;23.40;61.60;;;;;;5022474;28;20894;-64
2021/07/08 05:54:50;;;;;;;2.33;1.05;;;23.40;61.70;;;;;;5022320;28;20789;-63
2021/07/08 05:57:16;;;;;;;2.25;0.82;;;23.40;61.70;;;;;;5021968;28;20387;-63
2021/07/08 05:59:42;;;;;;;2.00;0.90;;;23.40;62.00;;;;;;5022132;28;20398;-64
2021/07/08 06:02:07;;;;;;;2.10;1.07;;;23.40;61.80;;;;;;5022352;28;20387;-63
2021/07/08 06:04:33;;;;;;;2.13;1.10;;;23.40;61.90;;;;;;5022310;28;21681;-63
2021/07/08 06:06:59;;;;;;;1.87;1.00;;;23.40;61.90;;;;;;5022382;28;20407;-64
2021/07/08 06:09:24;;;;;;;1.77;1.10;;;23.40;62.00;;;;;;5022015;28;20399;-64
2021/07/08 06:11:50;;;;;;;1.95;1.10;;;23.40;61.60;;;;;;5022234;28;20383;-64
2021/07/08 06:14:16;;;;;;;1.80;1.10;;;23.40;61.70;;;;;;5022090;28;20490;-63
2021/07/08 06:16:41;;;;;;;1.63;0.90;;;23.40;61.70;;;;;;5022220;28;20402;-66
2021/07/08 06:19:07;;;;;;;1.97;1.00;;;23.40;61.70;;;;;;5021882;28;20400;-63
2021/07/08 06:21:33;;;;;;;1.95;1.00;;;23.40;61.70;;;;;;5021817;28;21186;-64
2021/07/08 06:23:58;;;;;;;1.70;0.93;;;23.40;61.60;;;;;;5022278;28;20878;-63
2021/07/08 06:26:24;;;;;;;1.67;0.90;;;23.40;61.70;;;;;;5021884;28;20477;-63
2021/07/08 06:28:50;;;;;;;3.78;1.20;;;23.40;61.80;;;;;;5037198;28;20779;-63
2021/07/08 06:31:15;;;;;;;1.70;1.00;;;23.40;61.60;;;;;;5019961;28;20402;-63
2021/07/08 06:33:43;;;;;;;2.42;1.17;;;23.40;61.60;;;;;;5022153;28;20401;-63
2021/07/08 06:36:09;;;;;;;1.60;0.90;;;23.40;61.70;;;;;;5022142;28;20410;-64
2021/07/08 06:38:35;;;;;;;1.50;1.00;;;23.40;61.70;;;;;;5021715;28;21301;-63
2021/07/08 06:41:00;;;;;;;1.63;0.90;;;23.40;61.70;;;;;;5021856;28;20980;-63
2021/07/08 06:43:26;;;;;;;1.90;1.00;;;23.40;61.60;;;;;;5021596;28;20395;-63
2021/07/08 06:45:52;;;;;;;2.20;1.10;;;23.40;61.70;;;;;;5024124;28;20819;-63
2021/07/08 06:48:17;;;;;;;1.83;0.98;;;23.40;61.60;;;;;;5025613;28;20854;-64
2021/07/08 06:50:44;;;;;;;2.95;1.00;;;23.50;61.70;;;;;;5025909;28;20395;-64
2021/07/08 06:53:10;;;;;;;1.30;1.00;;;23.40;61.60;;;;;;5024144;28;20423;-63
2021/07/08 06:55:37;;;;;;;1.40;0.90;;;23.40;61.50;;;;;;5024756;28;20395;-63
2021/07/08 06:58:03;;;;;;;1.60;0.90;;;23.50;61.60;;;;;;5023874;28;21855;-63
2021/07/08 07:00:33;;;;;;;2.00;1.10;;;23.50;62.00;;;;;;5025563;28;20397;-64
2021/07/08 07:03:00;;;;;;;2.60;1.10;;;23.40;62.00;;;;;;5023394;28;20406;-64
2021/07/08 07:05:27;;;;;;;2.45;1.08;;;23.50;62.00;;;;;;5024705;28;20383;-64
2021/07/08 07:07:53;;;;;;;3.25;1.10;;;23.50;61.80;;;;;;5025256;28;20899;-63
2021/07/08 07:10:21;;;;;;;4.43;1.10;;;23.50;61.90;;;;;;5025709;28;20410;-64
2021/07/08 07:12:48;;;;;;;2.90;1.10;;;23.50;61.70;;;;;;5024147;28;20486;-63
2021/07/08 07:15:15;;;;;;;3.75;1.20;;;23.50;61.50;;;;;;5025680;28;20387;-63
2021/07/08 07:17:41;;;;;;;1.70;1.00;;;23.50;61.50;;;;;;5025370;28;20399;-64
2021/07/08 07:20:09;;;;;;;2.60;1.00;;;23.50;61.40;;;;;;5025765;28;20867;-64
2021/07/08 07:22:37;;;;;;;2.43;1.03;;;23.50;61.40;;;;;;5025713;28;20492;-63
2021/07/08 07:25:05;;;;;;;2.57;0.90;;;23.50;61.50;;;;;;5025731;28;20417;-65
2021/07/08 07:27:31;;;;;;;1.65;0.90;;;23.50;61.40;;;;;;5024743;28;20409;-64
2021/07/08 07:30:02;;;;;;;1.98;0.80;;;23.50;61.40;;;;;;5025705;28;20441;-64
2021/07/08 07:32:28;;;;;;;1.40;0.80;;;23.50;61.30;;;;;;5025567;28;20387;-63
2021/07/08 07:34:53;;;;;;;1.90;0.85;;;23.40;61.30;;;;;;5025703;28;20763;-64
2021/07/08 07:37:19;;;;;;;1.90;1.10;;;23.50;61.40;;;;;;5039841;28;20958;-63
2021/07/08 07:39:44;;;;;;;2.00;1.10;;;23.50;61.30;;;;;;5040753;28;20407;-64
2021/07/08 07:42:10;;;;;;;3.03;1.00;;;23.40;61.20;;;;;;5025043;28;20410;-63
2021/07/08 07:44:36;;;;;;;2.93;1.30;;;23.40;61.30;;;;;;5025250;28;20398;-64
2021/07/08 07:47:01;;;;;;;1.90;1.15;;;23.50;61.40;;;;;;5024635;28;20489;-64
2021/07/08 07:49:27;;;;;;;1.70;1.00;;;23.40;61.30;;;;;;5024862;28;20402;-63
2021/07/08 07:51:53;;;;;;;1.77;1.15;;;23.50;61.40;;;;;;5025050;28;20477;-64
2021/07/08 07:54:18;;;;;;;2.67;1.27;;;23.40;61.30;;;;;;5023772;28;20964;-65
2021/07/08 07:56:44;;;;;;;2.33;1.20;;;23.40;61.30;;;;;;5024758;28;20378;-64
2021/07/08 07:59:09;;;;;;;2.05;1.30;;;23.40;61.30;;;;;;5024511;28;21596;-64
2021/07/08 08:01:35;;;;;;;2.23;1.40;;;23.40;61.30;;;;;;5025130;28;20386;-64
2021/07/08 08:04:01;;;;;;;2.40;1.33;;;23.40;61.20;;;;;;5024430;28;20398;-63
2021/07/08 08:09:11;;;;;;;3.88;2.08;;;23.40;61.40;;;;;;5024568;28;20933;-66
2021/07/08 08:11:40;;;;;;;2.60;1.40;;;23.40;61.40;;;;;;5025147;28;20383;-64
2021/07/08 08:14:05;;;;;;;3.10;1.50;;;23.40;61.50;;;;;;5024555;28;20477;-63
2021/07/08 08:16:34;;;;;;;3.40;1.50;;;23.40;61.30;;;;;;5024868;28;20498;-64
2021/07/08 08:19:00;;;;;;;2.38;1.42;;;23.40;61.30;;;;;;5024614;28;20426;-64
2021/07/08 08:21:26;;;;;;;3.28;1.70;;;23.50;61.30;;;;;;5023639;28;20403;-63
2021/07/08 08:23:52;;;;;;;2.93;1.50;;;23.40;61.20;;;;;;5024766;28;20490;-63
2021/07/08 08:26:17;;;;;;;2.58;1.40;;;23.40;61.30;;;;;;5024752;28;20405;-64
2021/07/08 08:28:43;;;;;;;2.57;1.50;;;23.50;61.20;;;;;;5024513;28;20426;-64
2021/07/08 08:31:09;;;;;;;2.28;1.40;;;23.40;61.20;;;;;;5024514;28;20395;-63
2021/07/08 08:33:34;;;;;;;2.40;1.50;;;23.50;61.30;;;;;;5023633;28;20426;-65
2021/07/08 08:36:00;;;;;;;2.92;1.83;;;23.50;61.30;;;;;;5024060;28;20390;-64
2021/07/08 08:38:26;;;;;;;2.57;1.50;;;23.50;61.30;;;;;;5024244;28;20401;-63
2021/07/08 08:40:52;;;;;;;3.38;1.50;;;23.40;61.20;;;;;;5024101;28;20383;-63
2021/07/08 08:43:18;;;;;;;2.93;1.63;;;23.40;61.20;;;;;;5023808;28;20479;-64
2021/07/08 08:45:47;;;;;;;2.50;1.63;;;23.40;61.30;;;;;;5022687;28;20414;-64
2021/07/08 08:48:13;;;;;;;3.28;1.65;;;23.50;61.30;;;;;;5024047;28;20898;-63
2021/07/08 08:50:45;;;;;;;2.30;1.60;;;23.50;61.30;;;;;;5023915;28;20391;-64
2021/07/08 08:53:12;;;;;;;2.40;1.40;;;23.50;61.30;;;;;;5024080;28;20385;-63
2021/07/08 08:55:40;;;;;;;2.97;1.60;;;23.50;61.40;;;;;;5023956;28;20465;-63
2021/07/08 08:58:11;;;;;;;2.83;1.58;;;23.50;61.40;;;;;;5023826;28;20387;-65
2021/07/08 09:00:45;;;;;;;2.60;1.70;;;23.50;61.20;;;;;;5023730;28;21303;-64
2021/07/08 09:03:14;;;;;;;3.07;1.60;;;23.50;61.20;;;;;;5023728;28;20392;-63
2021/07/08 09:05:41;;;;;;;3.42;1.80;;;23.50;61.20;;;;;;5023934;28;20390;-63
2021/07/08 09:08:15;;;;;;;2.10;1.55;;;23.50;61.20;;;;;;5022612;28;20431;-63
2021/07/08 09:10:43;;;;;;;3.35;1.70;;;23.50;61.10;;;;;;5024146;28;20466;-64
2021/07/08 09:13:09;;;;;;;3.05;1.80;;;23.50;61.20;;;;;;5023434;28;20406;-64
2021/07/08 09:15:34;;;;;;;2.97;1.70;;;23.50;61.20;;;;;;5023783;28;20751;-63
2021/07/08 09:18:00;;;;;;;2.70;1.60;;;23.50;61.20;;;;;;5023334;28;20755;-65
2021/07/08 09:20:27;;;;;;;2.60;1.60;;;23.50;61.10;;;;;;5023075;28;20567;-64
2021/07/08 09:23:11;;;;;;;2.22;1.50;;;23.50;61.10;;;;;;5023818;28;20934;-64
2021/07/08 09:25:37;;;;;;;2.63;1.52;;;23.50;61.20;;;;;;5023088;28;20389;-64
2021/07/08 09:28:20;;;;;;;2.47;1.45;;;23.50;61.20;;;;;;5023416;28;20433;-64
2021/07/08 09:30:57;;;;;;;2.60;1.60;;;23.50;61.30;;;;;;5023231;28;20387;-64
2021/07/08 09:33:36;;;;;;;2.37;1.40;;;23.40;61.10;;;;;;5023189;28;21628;-67
2021/07/08 09:36:09;;;;;;;2.33;1.60;;;23.50;61.20;;;;;;5022865;28;20406;-64
2021/07/08 09:38:35;;;;;;;2.25;1.40;;;23.40;61.20;;;;;;5022520;28;20414;-64
2021/07/08 09:41:29;;;;;;;2.40;1.45;;;23.50;61.10;;;;;;5023046;28;20811;-63
2021/07/08 09:43:55;;;;;;;2.20;1.50;;;23.50;61.20;;;;;;5022681;28;20399;-63
2021/07/08 09:46:36;;;;;;;2.53;1.70;;;23.50;61.10;;;;;;5023277;28;20389;-64
2021/07/08 09:49:11;;;;;;;2.08;1.50;;;23.50;61.10;;;;;;5022010;28;21027;-64
2021/07/08 09:51:39;;;;;;;2.88;1.58;;;23.50;61.10;;;;;;5021393;28;20422;-64
2021/07/08 09:54:43;;;;;;;2.00;1.55;;;23.50;61.00;;;;;;5022721;28;20485;-64
2021/07/08 09:56:57;;;;;;;1.90;1.48;;;23.50;61.10;;;;;;5024433;28;20405;-63
2021/07/08 09:59:36;;;;;;;2.70;1.77;;;23.50;61.20;;;;;;5022413;28;20399;-63
2021/07/08 10:02:02;;;;;;;2.28;1.50;;;23.50;61.00;;;;;;5022674;28;20387;-63
2021/07/08 10:04:28;;;;;;;2.53;1.52;;;23.40;60.90;;;;;;5023021;28;20433;-63
2021/07/08 10:06:54;;;;;;;2.30;1.80;;;23.50;61.10;;;;;;5022535;28;20485;-64
2021/07/08 10:09:23;;;;;;;1.83;1.60;;;23.50;61.10;;;;;;5020889;28;20528;-64
2021/07/08 10:11:50;;;;;;;2.75;1.70;;;23.50;61.10;;;;;;5022851;28;20398;-63
2021/07/08 10:14:19;;;;;;;2.00;1.45;;;23.40;61.10;;;;;;5022711;28;20395;-63
2021/07/08 10:16:54;;;;;;;2.35;1.60;;;23.50;61.10;;;;;;5022863;28;20399;-64
2021/07/08 10:19:22;;;;;;;2.00;1.50;;;23.50;61.10;;;;;;5023628;28;20467;-64
2021/07/08 10:21:50;;;;;;;2.45;1.60;;;23.50;61.10;;;;;;5025277;28;20453;-64
2021/07/08 10:24:17;;;;;;;2.65;1.55;;;23.50;61.20;;;;;;5042105;28;21024;-63
2021/07/08 10:26:44;;;;;;;2.63;1.50;;;23.40;61.10;;;;;;5026524;28;20406;-64
2021/07/08 10:29:14;;;;;;;1.70;1.40;;;23.50;61.20;;;;;;5026082;28;20759;-64
2021/07/08 10:31:46;;;;;;;1.70;1.33;;;23.40;61.10;;;;;;5026582;28;20486;-64
2021/07/08 10:34:14;;;;;;;2.40;1.80;;;23.40;61.10;;;;;;5026318;28;20387;-63
2021/07/08 10:36:46;;;;;;;1.95;1.35;;;23.40;61.20;;;;;;5026439;28;20395;-64
2021/07/08 10:39:15;;;;;;;2.40;1.60;;;23.40;61.10;;;;;;5026183;28;20407;-64
2021/07/08 10:41:43;;;;;;;2.15;1.55;;;23.40;61.10;;;;;;5041487;28;20426;-64
2021/07/08 10:44:34;;;;;;;1.77;1.45;;;23.40;61.10;;;;;;5026185;28;20403;-64
2021/07/08 10:47:04;;;;;;;1.92;1.52;;;23.40;61.10;;;;;;5025953;28;21040;-64
2021/07/08 10:49:38;;;;;;;6.95;3.80;;;23.40;61.10;;;;;;5025680;28;20484;-64
2021/07/08 10:52:07;;;;;;;15.03;8.47;;;23.40;61.50;;;;;;5026048;28;20383;-63
2021/07/08 10:54:32;;;;;;;13.53;8.03;;;23.40;61.60;;;;;;5026235;28;20394;-63
2021/07/08 10:57:02;;;;;;;11.30;6.20;;;23.40;61.70;;;;;;5025159;28;20414;-63
2021/07/08 10:59:44;;;;;;;11.97;6.87;;;23.40;61.60;;;;;;5026124;28;20468;-63
2021/07/08 11:02:10;;;;;;;9.82;5.72;;;23.40;61.80;;;;;;5025699;28;20405;-64
2021/07/08 11:04:45;;;;;;;13.83;8.20;;;23.40;61.70;;;;;;5026157;28;20748;-64
2021/07/08 11:07:15;;;;;;;17.73;11.27;;;23.40;61.60;;;;;;5025507;28;20403;-64
2021/07/08 11:09:55;;;;;;;23.65;13.38;;;23.40;61.70;;;;;;5025001;28;20402;-63
2021/07/08 11:12:29;;;;;;;25.40;14.73;;;23.40;61.70;;;;;;5023764;28;20383;-64
2021/07/08 11:14:55;;;;;;;26.13;15.77;;;23.50;61.70;;;;;;5025050;28;20859;-63
2021/07/08 11:17:21;;;;;;;27.23;16.03;;;23.50;61.60;;;;;;5024633;28;20410;-64
2021/07/08 11:19:49;;;;;;;28.40;17.00;;;23.50;61.70;;;;;;5024927;28;20398;-66
2021/07/08 11:22:34;;;;;;;28.77;17.25;;;23.50;61.70;;;;;;5025093;28;20414;-64
2021/07/08 11:25:01;;;;;;;27.05;16.33;;;23.50;61.70;;;;;;5023092;28;20457;-65
2021/07/08 11:27:33;;;;;;;25.40;16.08;;;23.50;61.60;;;;;;5024271;28;20434;-66
2021/07/08 11:30:24;;;;;;;26.83;16.17;;;23.50;61.70;;;;;;5024931;28;20395;-64
2021/07/08 11:32:56;;;;;;;25.73;15.77;;;23.50;61.70;;;;;;5024742;28;20389;-63
2021/07/08 11:38:00;;;;;;;23.10;14.67;;;23.50;61.70;;;;;;5025204;28;20409;-65
2021/07/08 11:40:36;;;;;;;23.45;14.80;;;23.50;61.70;;;;;;5024890;28;20391;-66
2021/07/08 11:43:36;;;;;;;23.73;14.97;;;23.50;61.70;;;;;;5024889;28;20383;-64
2021/07/08 11:46:12;;;;;;;23.77;15.02;;;23.50;61.70;;;;;;5024873;28;20478;-64
2021/07/08 11:48:39;;;;;;;21.60;13.75;;;23.40;61.60;;;;;;5024752;28;20426;-64
2021/07/08 11:51:13;;;;;;;23.27;14.30;;;23.50;61.80;;;;;;5024366;28;20379;-64
2021/07/08 11:53:39;;;;;;;22.08;13.82;;;23.50;61.70;;;;;;5024504;28;20406;-65
2021/07/08 11:56:05;;;;;;;20.73;13.27;;;23.50;61.80;;;;;;5024338;28;20387;-64
2021/07/08 11:58:33;;;;;;;20.02;13.20;;;23.50;61.90;;;;;;5023322;28;20399;-63
2021/07/08 12:01:08;;;;;;;20.15;13.10;;;23.50;61.70;;;;;;5024861;28;20946;-64
2021/07/08 12:03:36;;;;;;;20.95;12.93;;;23.40;61.70;;;;;;5024560;28;20391;-64
2021/07/08 12:06:05;;;;;;;19.23;12.27;;;23.50;61.70;;;;;;5024577;28;20429;-64
2021/07/08 12:08:51;;;;;;;20.48;12.80;;;23.50;61.70;;;;;;5025160;28;20429;-63
2021/07/08 12:11:24;;;;;;;19.27;11.80;;;23.50;61.60;;;;;;5024708;28;20390;-64
2021/07/08 12:14:07;;;;;;;20.70;12.50;;;23.50;62.60;;;;;;5025375;28;20483;-64
2021/07/08 12:16:35;;;;;;;18.87;11.53;;;23.50;62.10;;;;;;5024897;28;20386;-64
2021/07/08 12:19:18;;;;;;;19.60;11.93;;;23.50;62.10;;;;;;5024807;28;20634;-63
2021/07/08 12:21:45;;;;;;;16.58;10.55;;;23.50;62.00;;;;;;5024275;28;20407;-65
2021/07/08 12:24:26;;;;;;;14.23;9.23;;;23.50;61.90;;;;;;5024619;28;20395;-64
2021/07/08 12:26:59;;;;;;;12.68;8.75;;;23.50;62.20;;;;;;5024616;28;20469;-64
2021/07/08 12:29:33;;;;;;;14.55;9.05;;;23.50;62.40;;;;;;5023855;28;20399;-64
2021/07/08 12:32:04;;;;;;;14.80;9.33;;;23.50;62.30;;;;;;5023313;28;20391;-64
2021/07/08 12:34:36;;;;;;;16.02;9.10;;;23.50;62.40;;;;;;5039545;28;20403;-64
2021/07/08 12:37:20;;;;;;;15.15;9.90;;;23.50;62.30;;;;;;5024139;28;20410;-64
2021/07/08 12:39:52;;;;;;;15.40;9.68;;;23.50;62.40;;;;;;5023995;28;20406;-64
2021/07/08 12:42:23;;;;;;;15.38;9.60;;;23.50;62.20;;;;;;5023814;28;20391;-64
2021/07/08 12:44:51;;;;;;;13.75;9.20;;;23.50;62.20;;;;;;5023674;28;20898;-64
2021/07/08 12:47:18;;;;;;;13.75;9.25;;;23.50;62.10;;;;;;5023944;28;20415;-64
2021/07/08 12:49:47;;;;;;;14.50;9.50;;;23.50;62.20;;;;;;5023430;28;20504;-64
2021/07/08 12:52:13;;;;;;;12.27;8.73;;;23.50;62.20;;;;;;5023446;28;20388;-63
2021/07/08 12:54:39;;;;;;;12.50;8.70;;;23.50;62.20;;;;;;5023368;28;20399;-64